Tobias Bolanos

About
Name: Tobias Bolanos
Identifier:  SYQ/MRPV
Public/Private:  Public
Local Time:  16. Sep 00:20 CST
Description: Tobías Bolaños International Airport is one of four international airports in Costa Rica, and the secondary airport serving the city of San José, after Juan Santamaría International Airport. It is located in downtown San José, in Pavas District, San José Canton.
Source: Wikipedia
Location
Runways
Identifier Length (m/ft) Surface
09/27 1,620/5,315 Asphalt
Statistics
Flights per Day:
6 flights
Distance: 132km (82mi)
Flights delayed:
97% (0 flights per day delayed)
Delay Average: 405 minutes
Current Weather
 20 C (Humidity: 93%)
  4kt (7km/h / 4mph) from 280°
  Few clouds at 300 feet (91 meter)
  Overcast at 10,000 feet (3,048 meter)
  9km (6 mi.)
No significant changes expected

 Patches of Fog
 METAR MRPV 160000Z 28004KT 010V280 9999 4000N -RA BCFG FEW003 OVC100 20/19 A3002 NOSIG

Current Flights

Arrivals
Number Arrival From Airline
On time 5U5042 12:28  Quepos TAG Airlines

Current Delays

Departures
N/A
Arrivals
N/A

Destinations

Top Destinations
Airport Flights
per week
Seats
per week
  Ottawa (YOW) 0 - 0 0

Airlines & Planes

Top Airlines
Airline Flights
per Day
Seats
per Day
  LACSA Lineas Aereas Costarricenses 0 -
Top Plane Types
Model Flights Seats
Piper PA-28RT-201T 0.0/day - 0